sensor_id;sensor_type;location;lat;lon;timestamp;pressure;altitude;pressure_sealevel;temperature;humidity
77739;BME280;66904;59.926;30.404;2024-01-30T00:03:20;102425.97;;;4.35;69.32
77739;BME280;66904;59.926;30.404;2024-01-30T00:08:31;102424.28;;;4.32;69.46
77739;BME280;66904;59.926;30.404;2024-01-30T00:13:42;102423.38;;;4.33;69.28
77739;BME280;66904;59.926;30.404;2024-01-30T00:18:53;102415.53;;;4.32;69.67
77739;BME280;66904;59.926;30.404;2024-01-30T00:24:04;102425.13;;;4.33;69.25
77739;BME280;66904;59.926;30.404;2024-01-30T00:29:15;102417.44;;;4.25;69.37
77739;BME280;66904;59.926;30.404;2024-01-30T00:34:30;102425.34;;;4.24;69.35
77739;BME280;66904;59.926;30.404;2024-01-30T00:39:40;102444.47;;;4.27;69.60
77739;BME280;66904;59.926;30.404;2024-01-30T00:44:51;102449.72;;;4.27;69.61
77739;BME280;66904;59.926;30.404;2024-01-30T00:50:02;102451.47;;;4.27;69.59
77739;BME280;66904;59.926;30.404;2024-01-30T00:55:14;102450.63;;;4.25;69.59
77739;BME280;66904;59.926;30.404;2024-01-30T01:00:24;102454.16;;;4.24;69.66
77739;BME280;66904;59.926;30.404;2024-01-30T01:05:39;102459.31;;;4.27;69.76
77739;BME280;66904;59.926;30.404;2024-01-30T01:10:50;102458.53;;;4.22;69.82
77739;BME280;66904;59.926;30.404;2024-01-30T01:16:00;102467.38;;;4.16;69.71
77739;BME280;66904;59.926;30.404;2024-01-30T01:21:11;102478.78;;;4.13;70.13
77739;BME280;66904;59.926;30.404;2024-01-30T01:26:22;102490.09;;;4.15;69.88
77739;BME280;66904;59.926;30.404;2024-01-30T01:31:33;102498.00;;;4.12;69.99
77739;BME280;66904;59.926;30.404;2024-01-30T01:36:43;102502.44;;;4.10;70.08
77739;BME280;66904;59.926;30.404;2024-01-30T01:41:54;102504.13;;;4.13;70.10
77739;BME280;66904;59.926;30.404;2024-01-30T01:47:05;102507.66;;;4.10;70.50
77739;BME280;66904;59.926;30.404;2024-01-30T01:52:16;102507.53;;;4.16;70.23
77739;BME280;66904;59.926;30.404;2024-01-30T01:57:27;102536.28;;;4.20;69.79
77739;BME280;66904;59.926;30.404;2024-01-30T02:02:39;102527.69;;;4.11;70.08
77739;BME280;66904;59.926;30.404;2024-01-30T02:07:50;102541.78;;;4.06;70.08
77739;BME280;66904;59.926;30.404;2024-01-30T02:13:01;102534.78;;;4.06;70.09
77739;BME280;66904;59.926;30.404;2024-01-30T02:18:11;102545.28;;;4.05;70.11
77739;BME280;66904;59.926;30.404;2024-01-30T02:23:43;102555.75;;;4.06;70.29
77739;BME280;66904;59.926;30.404;2024-01-30T02:28:55;102552.25;;;4.06;70.15
77739;BME280;66904;59.926;30.404;2024-01-30T02:34:06;102553.19;;;4.03;70.13
77739;BME280;66904;59.926;30.404;2024-01-30T02:39:16;102570.66;;;4.01;70.47
77739;BME280;66904;59.926;30.404;2024-01-30T02:44:27;102571.56;;;4.00;70.30
77739;BME280;66904;59.926;30.404;2024-01-30T02:49:38;102566.38;;;3.96;70.42
77739;BME280;66904;59.926;30.404;2024-01-30T02:54:49;102572.59;;;3.90;70.53
77739;BME280;66904;59.926;30.404;2024-01-30T03:00:00;102571.91;;;3.79;70.66
77739;BME280;66904;59.926;30.404;2024-01-30T03:05:10;102566.69;;;3.79;70.36
77739;BME280;66904;59.926;30.404;2024-01-30T03:10:21;102575.28;;;3.86;70.23
77739;BME280;66904;59.926;30.404;2024-01-30T03:15:32;102595.47;;;3.79;70.52
77739;BME280;66904;59.926;30.404;2024-01-30T03:20:43;102588.53;;;3.77;70.57
77739;BME280;66904;59.926;30.404;2024-01-30T03:25:54;102580.81;;;3.69;70.93
77739;BME280;66904;59.926;30.404;2024-01-30T03:31:04;102592.16;;;3.68;70.66
77739;BME280;66904;59.926;30.404;2024-01-30T03:36:15;102613.13;;;3.65;70.94
77739;BME280;66904;59.926;30.404;2024-01-30T03:41:26;102612.25;;;3.66;70.81
77739;BME280;66904;59.926;30.404;2024-01-30T03:46:37;102610.50;;;3.65;70.89
77739;BME280;66904;59.926;30.404;2024-01-30T03:51:48;102608.72;;;3.69;71.33
77739;BME280;66904;59.926;30.404;2024-01-30T03:56:59;102615.69;;;3.70;71.04
77739;BME280;66904;59.926;30.404;2024-01-30T04:02:10;102621.69;;;3.75;71.01
77739;BME280;66904;59.926;30.404;2024-01-30T04:07:22;102612.97;;;3.76;71.11
77739;BME280;66904;59.926;30.404;2024-01-30T04:12:32;102609.47;;;3.77;71.20
77739;BME280;66904;59.926;30.404;2024-01-30T04:17:44;102611.16;;;3.79;71.09
77739;BME280;66904;59.926;30.404;2024-01-30T04:22:54;102615.59;;;3.76;71.47
77739;BME280;66904;59.926;30.404;2024-01-30T04:28:05;102608.63;;;3.75;71.15
77739;BME280;66904;59.926;30.404;2024-01-30T04:33:16;102594.75;;;3.71;71.21
77739;BME280;66904;59.926;30.404;2024-01-30T04:38:28;102599.16;;;3.66;70.94
77739;BME280;66904;59.926;30.404;2024-01-30T04:43:39;102600.84;;;3.70;71.08
77739;BME280;66904;59.926;30.404;2024-01-30T04:48:50;102603.44;;;3.72;71.12
77739;BME280;66904;59.926;30.404;2024-01-30T04:54:01;102606.00;;;3.75;71.41
77739;BME280;66904;59.926;30.404;2024-01-30T04:59:11;102606.00;;;3.76;71.27
77739;BME280;66904;59.926;30.404;2024-01-30T05:04:22;102607.69;;;3.80;71.42
77739;BME280;66904;59.926;30.404;2024-01-30T05:09:33;102619.03;;;3.79;71.58
77739;BME280;66904;59.926;30.404;2024-01-30T05:14:44;102620.78;;;3.79;71.42
77739;BME280;66904;59.926;30.404;2024-01-30T05:19:54;102629.50;;;3.81;71.12
77739;BME280;66904;59.926;30.404;2024-01-30T05:25:06;102627.75;;;3.80;71.15
77739;BME280;66904;59.926;30.404;2024-01-30T05:30:16;102633.88;;;3.79;71.29
77739;BME280;66904;59.926;30.404;2024-01-30T05:35:27;102636.56;;;3.73;70.92
77739;BME280;66904;59.926;30.404;2024-01-30T05:40:38;102669.72;;;3.72;71.34
77739;BME280;66904;59.926;30.404;2024-01-30T05:45:48;102662.69;;;3.77;71.46
77739;BME280;66904;59.926;30.404;2024-01-30T05:50:59;102673.13;;;3.80;71.05
77739;BME280;66904;59.926;30.404;2024-01-30T05:56:10;102680.16;;;3.77;70.96
77739;BME280;66904;59.926;30.404;2024-01-30T06:01:21;102677.56;;;3.74;71.67
77739;BME280;66904;59.926;30.404;2024-01-30T06:06:31;102664.50;;;3.72;71.06
77739;BME280;66904;59.926;30.404;2024-01-30T06:11:42;102667.94;;;3.76;71.53
77739;BME280;66904;59.926;30.404;2024-01-30T06:16:53;102666.13;;;3.81;71.13
77739;BME280;66904;59.926;30.404;2024-01-30T06:22:04;102661.72;;;3.81;71.51
77739;BME280;66904;59.926;30.404;2024-01-30T06:27:18;102669.63;;;3.80;71.08
77739;BME280;66904;59.926;30.404;2024-01-30T06:32:28;102662.78;;;3.71;70.92
77739;BME280;66904;59.926;30.404;2024-01-30T06:37:39;102676.75;;;3.70;71.01
77739;BME280;66904;59.926;30.404;2024-01-30T06:42:50;102681.94;;;3.72;70.89
77739;BME280;66904;59.926;30.404;2024-01-30T06:48:00;102690.72;;;3.71;71.57
77739;BME280;66904;59.926;30.404;2024-01-30T06:53:11;102695.84;;;3.75;71.34
77739;BME280;66904;59.926;30.404;2024-01-30T06:58:22;102696.72;;;3.76;71.06
77739;BME280;66904;59.926;30.404;2024-01-30T07:03:33;102694.16;;;3.74;71.64
77739;BME280;66904;59.926;30.404;2024-01-30T07:08:44;102706.41;;;3.71;71.19
77739;BME280;66904;59.926;30.404;2024-01-30T07:13:54;102718.66;;;3.67;71.61
77739;BME280;66904;59.926;30.404;2024-01-30T07:19:05;102708.13;;;3.73;71.24
77739;BME280;66904;59.926;30.404;2024-01-30T07:24:16;102722.13;;;3.69;71.36
77739;BME280;66904;59.926;30.404;2024-01-30T07:29:27;102715.91;;;3.75;71.59
77739;BME280;66904;59.926;30.404;2024-01-30T07:34:38;102718.44;;;3.82;71.31
77739;BME280;66904;59.926;30.404;2024-01-30T07:39:48;102715.03;;;3.76;71.05
77739;BME280;66904;59.926;30.404;2024-01-30T07:45:00;102721.25;;;3.70;70.71
77739;BME280;66904;59.926;30.404;2024-01-30T07:50:11;102716.97;;;3.64;71.43
77739;BME280;66904;59.926;30.404;2024-01-30T07:55:22;102714.28;;;3.69;71.76
77739;BME280;66904;59.926;30.404;2024-01-30T08:00:35;102711.66;;;3.69;71.87
77739;BME280;66904;59.926;30.404;2024-01-30T08:05:45;102716.88;;;3.71;71.34
77739;BME280;66904;59.926;30.404;2024-01-30T08:10:56;102725.47;;;3.79;71.90
77739;BME280;66904;59.926;30.404;2024-01-30T08:16:07;102730.66;;;3.82;71.54
77739;BME280;66904;59.926;30.404;2024-01-30T08:21:18;102741.94;;;3.87;71.68
77739;BME280;66904;59.926;30.404;2024-01-30T08:26:29;102728.03;;;3.82;71.27
77739;BME280;66904;59.926;30.404;2024-01-30T08:31:39;102722.81;;;3.83;71.50
77739;BME280;66904;59.926;30.404;2024-01-30T08:36:50;102729.78;;;3.81;71.33
77739;BME280;66904;59.926;30.404;2024-01-30T08:42:01;102721.94;;;3.83;71.28
77739;BME280;66904;59.926;30.404;2024-01-30T08:47:11;102733.19;;;3.89;71.82
77739;BME280;66904;59.926;30.404;2024-01-30T08:52:22;102731.44;;;3.90;71.55
77739;BME280;66904;59.926;30.404;2024-01-30T08:57:33;102735.78;;;3.89;71.83
77739;BME280;66904;59.926;30.404;2024-01-30T09:02:44;102721.06;;;3.84;71.46
77739;BME280;66904;59.926;30.404;2024-01-30T09:07:55;102730.59;;;3.88;71.29
77739;BME280;66904;59.926;30.404;2024-01-30T09:13:06;102725.41;;;3.83;71.31
77739;BME280;66904;59.926;30.404;2024-01-30T09:18:17;102721.09;;;3.81;71.31
77739;BME280;66904;59.926;30.404;2024-01-30T09:23:28;102738.41;;;3.89;71.39
77739;BME280;66904;59.926;30.404;2024-01-30T09:28:39;102742.69;;;3.95;71.38
77739;BME280;66904;59.926;30.404;2024-01-30T09:33:50;102749.56;;;4.03;71.54
77739;BME280;66904;59.926;30.404;2024-01-30T09:39:01;102757.31;;;4.08;71.19
77739;BME280;66904;59.926;30.404;2024-01-30T09:44:13;102749.41;;;4.12;71.38
77739;BME280;66904;59.926;30.404;2024-01-30T09:49:26;102748.44;;;4.20;71.21
77739;BME280;66904;59.926;30.404;2024-01-30T09:54:38;102745.78;;;4.21;71.34
77739;BME280;66904;59.926;30.404;2024-01-30T09:59:49;102741.41;;;4.23;71.09
77739;BME280;66904;59.926;30.404;2024-01-30T10:05:02;102739.56;;;4.28;71.36
77739;BME280;66904;59.926;30.404;2024-01-30T10:10:14;102743.00;;;4.32;71.04
77739;BME280;66904;59.926;30.404;2024-01-30T10:15:25;102747.31;;;4.36;71.65
77739;BME280;66904;59.926;30.404;2024-01-30T10:20:36;102755.97;;;4.41;70.93
77739;BME280;66904;59.926;30.404;2024-01-30T10:25:48;102748.94;;;4.43;71.28
77739;BME280;66904;59.926;30.404;2024-01-30T10:31:02;102748.94;;;4.43;70.80
77739;BME280;66904;59.926;30.404;2024-01-30T10:36:17;102756.81;;;4.41;71.28
77739;BME280;66904;59.926;30.404;2024-01-30T10:41:31;102759.41;;;4.43;71.08
77739;BME280;66904;59.926;30.404;2024-01-30T10:46:51;102755.22;;;4.33;70.81
77739;BME280;66904;59.926;30.404;2024-01-30T10:52:08;102752.66;;;4.28;70.44
77739;BME280;66904;59.926;30.404;2024-01-30T10:57:19;102746.59;;;4.26;70.66
77739;BME280;66904;59.926;30.404;2024-01-30T11:02:33;102753.63;;;4.21;70.49
77739;BME280;66904;59.926;30.404;2024-01-30T11:07:44;102754.56;;;4.18;70.46
77739;BME280;66904;59.926;30.404;2024-01-30T11:12:54;102762.22;;;4.32;71.05
77739;BME280;66904;59.926;30.404;2024-01-30T11:18:05;102760.25;;;4.45;70.46
77739;BME280;66904;59.926;30.404;2024-01-30T11:23:16;102763.72;;;4.47;70.74
77739;BME280;66904;59.926;30.404;2024-01-30T11:28:32;102761.06;;;4.48;70.97
77739;BME280;66904;59.926;30.404;2024-01-30T11:33:44;102765.38;;;4.54;70.87
77739;BME280;66904;59.926;30.404;2024-01-30T11:38:55;102764.44;;;4.55;70.52
77739;BME280;66904;59.926;30.404;2024-01-30T11:44:06;102760.16;;;4.51;70.23
77739;BME280;66904;59.926;30.404;2024-01-30T11:49:18;102761.81;;;4.56;70.74
77739;BME280;66904;59.926;30.404;2024-01-30T11:54:29;102753.09;;;4.56;70.31
77739;BME280;66904;59.926;30.404;2024-01-30T11:59:39;102758.38;;;4.53;70.17
77739;BME280;66904;59.926;30.404;2024-01-30T12:04:50;102761.88;;;4.53;70.14
77739;BME280;66904;59.926;30.404;2024-01-30T12:10:01;102765.31;;;4.55;70.78
77739;BME280;66904;59.926;30.404;2024-01-30T12:15:15;102755.72;;;4.56;70.36
77739;BME280;66904;59.926;30.404;2024-01-30T12:20:26;102748.69;;;4.58;70.42
77739;BME280;66904;59.926;30.404;2024-01-30T12:25:36;102744.41;;;4.51;70.34
77739;BME280;66904;59.926;30.404;2024-01-30T12:30:47;102744.53;;;4.46;70.65
77739;BME280;66904;59.926;30.404;2024-01-30T12:36:01;102740.16;;;4.47;70.52
77739;BME280;66904;59.926;30.404;2024-01-30T12:41:12;102740.19;;;4.44;70.50
77739;BME280;66904;59.926;30.404;2024-01-30T12:46:29;102740.25;;;4.39;70.26
77739;BME280;66904;59.926;30.404;2024-01-30T12:51:40;102740.38;;;4.33;70.61
77739;BME280;66904;59.926;30.404;2024-01-30T12:56:51;102740.22;;;4.42;70.57
77739;BME280;66904;59.926;30.404;2024-01-30T13:02:02;102744.59;;;4.42;69.88
77739;BME280;66904;59.926;30.404;2024-01-30T13:07:13;102737.69;;;4.36;70.58
77739;BME280;66904;59.926;30.404;2024-01-30T13:12:24;102722.91;;;4.34;70.52
77739;BME280;66904;59.926;30.404;2024-01-30T13:17:35;102742.00;;;4.39;70.85
77739;BME280;66904;59.926;30.404;2024-01-30T13:22:49;102735.03;;;4.39;71.11
77739;BME280;66904;59.926;30.404;2024-01-30T13:28:00;102729.03;;;4.31;70.51
77739;BME280;66904;59.926;30.404;2024-01-30T13:33:11;102725.69;;;4.23;70.26
77739;BME280;66904;59.926;30.404;2024-01-30T13:38:22;102724.81;;;4.23;70.73
77739;BME280;66904;59.926;30.404;2024-01-30T13:43:33;102724.81;;;4.23;70.16
77739;BME280;66904;59.926;30.404;2024-01-30T13:48:43;102732.69;;;4.21;70.48
77739;BME280;66904;59.926;30.404;2024-01-30T13:53:54;102728.41;;;4.15;70.61
77739;BME280;66904;59.926;30.404;2024-01-30T13:59:05;102727.59;;;4.12;70.79
77739;BME280;66904;59.926;30.404;2024-01-30T14:04:16;102726.78;;;4.08;70.42
77739;BME280;66904;59.926;30.404;2024-01-30T14:09:27;102739.91;;;4.07;70.53
77739;BME280;66904;59.926;30.404;2024-01-30T14:14:39;102739.97;;;4.02;70.88
77739;BME280;66904;59.926;30.404;2024-01-30T14:19:50;102726.00;;;4.03;71.01
77739;BME280;66904;59.926;30.404;2024-01-30T14:25:01;102732.06;;;4.05;70.96
77739;BME280;66904;59.926;30.404;2024-01-30T14:30:14;102737.28;;;4.05;71.32
77739;BME280;66904;59.926;30.404;2024-01-30T14:35:25;102747.03;;;3.97;70.62
77739;BME280;66904;59.926;30.404;2024-01-30T14:40:36;102746.16;;;3.97;70.63
77739;BME280;66904;59.926;30.404;2024-01-30T14:45:46;102741.84;;;3.94;71.03
77739;BME280;66904;59.926;30.404;2024-01-30T14:51:00;102745.34;;;3.92;71.15
77739;BME280;66904;59.926;30.404;2024-01-30T14:56:10;102735.84;;;3.88;70.94
77739;BME280;66904;59.926;30.404;2024-01-30T15:01:21;102755.78;;;3.95;71.11
77739;BME280;66904;59.926;30.404;2024-01-30T15:06:32;102757.56;;;3.94;70.71
77739;BME280;66904;59.926;30.404;2024-01-30T15:11:44;102765.44;;;3.91;70.90
77739;BME280;66904;59.926;30.404;2024-01-30T15:16:55;102756.78;;;3.86;70.67
77739;BME280;66904;59.926;30.404;2024-01-30T15:22:06;102752.47;;;3.84;71.07
77739;BME280;66904;59.926;30.404;2024-01-30T15:27:17;102740.31;;;3.78;70.95
77739;BME280;66904;59.926;30.404;2024-01-30T15:32:29;102748.97;;;3.82;70.86
77739;BME280;66904;59.926;30.404;2024-01-30T15:37:40;102743.84;;;3.77;70.79
77739;BME280;66904;59.926;30.404;2024-01-30T15:42:51;102749.06;;;3.76;70.77
77739;BME280;66904;59.926;30.404;2024-01-30T15:48:02;102740.44;;;3.69;70.58
77739;BME280;66904;59.926;30.404;2024-01-30T15:53:13;102747.47;;;3.65;70.72
77739;BME280;66904;59.926;30.404;2024-01-30T15:58:23;102732.72;;;3.60;70.91
77739;BME280;66904;59.926;30.404;2024-01-30T16:03:34;102741.41;;;3.62;71.20
77739;BME280;66904;59.926;30.404;2024-01-30T16:08:45;102744.06;;;3.59;70.77
77739;BME280;66904;59.926;30.404;2024-01-30T16:13:55;102752.00;;;3.54;70.99
77739;BME280;66904;59.926;30.404;2024-01-30T16:19:06;102745.94;;;3.49;71.08
77739;BME280;66904;59.926;30.404;2024-01-30T16:24:17;102742.47;;;3.46;70.75
77739;BME280;66904;59.926;30.404;2024-01-30T16:29:29;102750.34;;;3.47;70.81
77739;BME280;66904;59.926;30.404;2024-01-30T16:34:40;102743.41;;;3.42;70.97
77739;BME280;66904;59.926;30.404;2024-01-30T16:39:51;102741.72;;;3.38;71.11
77739;BME280;66904;59.926;30.404;2024-01-30T16:45:03;102740.91;;;3.33;71.39
77739;BME280;66904;59.926;30.404;2024-01-30T16:50:14;102732.22;;;3.31;71.01
77739;BME280;66904;59.926;30.404;2024-01-30T16:55:25;102733.09;;;3.28;70.91
77739;BME280;66904;59.926;30.404;2024-01-30T17:00:37;102730.59;;;3.19;70.95
77739;BME280;66904;59.926;30.404;2024-01-30T17:05:48;102735.00;;;3.16;70.92
77739;BME280;66904;59.926;30.404;2024-01-30T17:11:04;102724.53;;;3.16;71.49
77739;BME280;66904;59.926;30.404;2024-01-30T17:16:15;102721.09;;;3.12;70.96
77739;BME280;66904;59.926;30.404;2024-01-30T17:21:26;102708.97;;;3.05;71.41
77739;BME280;66904;59.926;30.404;2024-01-30T17:26:37;102709.91;;;2.99;71.07
77739;BME280;66904;59.926;30.404;2024-01-30T17:31:47;102698.59;;;3.00;71.67
77739;BME280;66904;59.926;30.404;2024-01-30T17:36:59;102698.50;;;3.05;71.89
77739;BME280;66904;59.926;30.404;2024-01-30T17:42:09;102702.81;;;3.09;72.01
77739;BME280;66904;59.926;30.404;2024-01-30T17:47:20;102706.34;;;3.08;71.32
77739;BME280;66904;59.926;30.404;2024-01-30T17:52:31;102698.50;;;3.08;71.49
77739;BME280;66904;59.926;30.404;2024-01-30T17:57:42;102689.78;;;3.07;71.58
77739;BME280;66904;59.926;30.404;2024-01-30T18:02:53;102682.03;;;2.98;71.57
77739;BME280;66904;59.926;30.404;2024-01-30T18:08:06;102689.84;;;3.03;71.66
77739;BME280;66904;59.926;30.404;2024-01-30T18:13:17;102685.44;;;3.05;71.69
77739;BME280;66904;59.926;30.404;2024-01-30T18:18:28;102684.56;;;3.06;71.63
77739;BME280;66904;59.926;30.404;2024-01-30T18:23:38;102684.56;;;3.07;71.21
77739;BME280;66904;59.926;30.404;2024-01-30T18:28:49;102681.94;;;3.06;71.66
77739;BME280;66904;59.926;30.404;2024-01-30T18:34:00;102679.38;;;3.04;70.94
77739;BME280;66904;59.926;30.404;2024-01-30T18:39:11;102661.16;;;2.97;71.83
77739;BME280;66904;59.926;30.404;2024-01-30T18:44:21;102669.88;;;2.97;71.25
77739;BME280;66904;59.926;30.404;2024-01-30T18:49:32;102657.75;;;2.90;71.30
77739;BME280;66904;59.926;30.404;2024-01-30T18:54:43;102650.84;;;2.85;71.87
77739;BME280;66904;59.926;30.404;2024-01-30T18:59:54;102629.94;;;2.85;71.65
77739;BME280;66904;59.926;30.404;2024-01-30T19:05:05;102639.44;;;2.89;72.02
77739;BME280;66904;59.926;30.404;2024-01-30T19:10:15;102636.00;;;2.88;71.77
77739;BME280;66904;59.926;30.404;2024-01-30T19:15:28;102626.34;;;2.93;71.65
77739;BME280;66904;59.926;30.404;2024-01-30T19:20:39;102618.47;;;2.96;71.73
77739;BME280;66904;59.926;30.404;2024-01-30T19:25:51;102615.00;;;2.94;71.29
77739;BME280;66904;59.926;30.404;2024-01-30T19:31:02;102618.50;;;2.93;71.56
77739;BME280;66904;59.926;30.404;2024-01-30T19:36:14;102607.25;;;2.88;71.64
77739;BME280;66904;59.926;30.404;2024-01-30T19:41:25;102607.25;;;2.87;70.99
77739;BME280;66904;59.926;30.404;2024-01-30T19:46:36;102595.31;;;2.66;71.60
77739;BME280;66904;59.926;30.404;2024-01-30T19:51:47;102591.91;;;2.61;71.19
77739;BME280;66904;59.926;30.404;2024-01-30T19:56:58;102588.41;;;2.60;71.51
77739;BME280;66904;59.926;30.404;2024-01-30T20:02:11;102571.78;;;2.66;71.09
77739;BME280;66904;59.926;30.404;2024-01-30T20:07:26;102565.72;;;2.63;70.42
77739;BME280;66904;59.926;30.404;2024-01-30T20:12:36;102565.78;;;2.59;71.11
77739;BME280;66904;59.926;30.404;2024-01-30T20:17:51;102558.00;;;2.55;70.46
77739;BME280;66904;59.926;30.404;2024-01-30T20:23:02;102557.19;;;2.50;71.30
77739;BME280;66904;59.926;30.404;2024-01-30T20:28:13;102558.97;;;2.46;71.57
77739;BME280;66904;59.926;30.404;2024-01-30T20:33:24;102568.63;;;2.41;71.39
77739;BME280;66904;59.926;30.404;2024-01-30T20:38:35;102573.94;;;2.31;70.91
77739;BME280;66904;59.926;30.404;2024-01-30T20:43:47;102571.41;;;2.23;70.45
77739;BME280;66904;59.926;30.404;2024-01-30T20:48:57;102561.03;;;2.17;71.28
77739;BME280;66904;59.926;30.404;2024-01-30T20:54:10;102541.13;;;2.05;70.99
77739;BME280;66904;59.926;30.404;2024-01-30T20:59:22;102538.50;;;2.05;70.57
77739;BME280;66904;59.926;30.404;2024-01-30T21:04:33;102538.50;;;2.05;70.47
77739;BME280;66904;59.926;30.404;2024-01-30T21:09:43;102527.25;;;1.99;70.91
77739;BME280;66904;59.926;30.404;2024-01-30T21:14:54;102522.09;;;1.93;71.19
77739;BME280;66904;59.926;30.404;2024-01-30T21:20:06;102524.78;;;1.88;70.44
77739;BME280;66904;59.926;30.404;2024-01-30T21:25:17;102518.66;;;1.89;70.40
77739;BME280;66904;59.926;30.404;2024-01-30T21:30:29;102510.84;;;1.91;70.91
77739;BME280;66904;59.926;30.404;2024-01-30T21:35:40;102499.50;;;1.93;71.06
77739;BME280;66904;59.926;30.404;2024-01-30T21:40:51;102501.16;;;1.99;70.42
77739;BME280;66904;59.926;30.404;2024-01-30T21:46:02;102481.44;;;1.75;69.96
77739;BME280;66904;59.926;30.404;2024-01-30T21:51:13;102479.91;;;1.50;70.65
77739;BME280;66904;59.926;30.404;2024-01-30T21:56:24;102463.63;;;1.24;70.34
77739;BME280;66904;59.926;30.404;2024-01-30T22:01:35;102460.19;;;1.19;71.30
77739;BME280;66904;59.926;30.404;2024-01-30T22:06:45;102443.56;;;1.30;70.92
77739;BME280;66904;59.926;30.404;2024-01-30T22:11:56;102434.78;;;1.43;71.33
77739;BME280;66904;59.926;30.404;2024-01-30T22:17:07;102413.81;;;1.52;70.89
77739;BME280;66904;59.926;30.404;2024-01-30T22:22:18;102416.31;;;1.63;71.17
77739;BME280;66904;59.926;30.404;2024-01-30T22:27:28;102405.00;;;1.66;70.70
77739;BME280;66904;59.926;30.404;2024-01-30T22:32:39;102400.59;;;1.69;71.32
77739;BME280;66904;59.926;30.404;2024-01-30T22:37:50;102392.78;;;1.69;70.65
77739;BME280;66904;59.926;30.404;2024-01-30T22:43:02;102392.03;;;1.58;71.09
77739;BME280;66904;59.926;30.404;2024-01-30T22:48:13;102393.88;;;1.47;70.98
77739;BME280;66904;59.926;30.404;2024-01-30T22:53:23;102395.84;;;1.25;70.79
77739;BME280;66904;59.926;30.404;2024-01-30T22:58:34;102393.56;;;0.89;71.02
77739;BME280;66904;59.926;30.404;2024-01-30T23:03:46;102390.16;;;0.73;71.57
77739;BME280;66904;59.926;30.404;2024-01-30T23:08:57;102374.69;;;0.55;71.57
77739;BME280;66904;59.926;30.404;2024-01-30T23:14:08;102376.41;;;0.55;71.47
77739;BME280;66904;59.926;30.404;2024-01-30T23:19:19;102367.78;;;0.48;71.92
77739;BME280;66904;59.926;30.404;2024-01-30T23:24:29;102362.56;;;0.46;71.84
77739;BME280;66904;59.926;30.404;2024-01-30T23:29:40;102366.94;;;0.46;72.44
77739;BME280;66904;59.926;30.404;2024-01-30T23:34:51;102352.22;;;0.40;72.41
77739;BME280;66904;59.926;30.404;2024-01-30T23:40:02;102351.34;;;0.41;72.23
77739;BME280;66904;59.926;30.404;2024-01-30T23:45:14;102340.91;;;0.44;72.28
77739;BME280;66904;59.926;30.404;2024-01-30T23:50:25;102335.72;;;0.43;72.68
77739;BME280;66904;59.926;30.404;2024-01-30T23:55:36;102332.25;;;0.42;72.84
